createdAt,value
2023-01-13T00:00:15.297Z,91.16
2023-01-13T00:01:18.711Z,91.08
2023-01-13T00:02:20.430Z,91.05
2023-01-13T00:03:22.949Z,91.75
2023-01-13T00:04:24.703Z,92.17
2023-01-13T00:05:26.869Z,92.52
2023-01-13T00:06:29.689Z,92.89
2023-01-13T00:07:31.458Z,93.12
2023-01-13T00:08:33.565Z,93.26
2023-01-13T00:09:35.282Z,93.33
2023-01-13T00:10:37.069Z,93.51
2023-01-13T00:11:38.766Z,93.58
2023-01-13T00:12:41.455Z,93.63
2023-01-13T00:13:43.176Z,93.56
2023-01-13T00:14:44.953Z,93.51
2023-01-13T00:16:16.480Z,93.53
2023-01-13T00:17:18.197Z,93.75
2023-01-13T00:18:20.245Z,93.76
2023-01-13T00:19:21.933Z,93.71
2023-01-13T00:20:23.615Z,93.84
2023-01-13T00:21:25.444Z,93.87
2023-01-13T00:22:27.144Z,93.97
2023-01-13T00:23:29.632Z,93.91
2023-01-13T00:24:31.333Z,93.86
2023-01-13T00:25:33.055Z,93.94
2023-01-13T00:26:36.033Z,93.94
2023-01-13T00:27:37.828Z,93.87
2023-01-13T00:28:39.711Z,93.86
2023-01-13T00:29:41.450Z,93.90
2023-01-13T00:30:43.221Z,93.95
2023-01-13T00:31:44.930Z,93.88
2023-01-13T00:32:46.649Z,93.87
2023-01-13T00:33:49.297Z,93.89
2023-01-13T00:34:51.061Z,93.85
2023-01-13T00:35:57.692Z,93.93
2023-01-13T00:36:59.464Z,93.94
2023-01-13T00:38:01.145Z,94.00
2023-01-13T00:39:03.396Z,94.26
2023-01-13T00:40:05.909Z,94.28
2023-01-13T00:41:09.461Z,94.37
2023-01-13T00:42:29.707Z,94.38
2023-01-13T00:43:32.786Z,94.48
2023-01-13T00:44:34.714Z,94.59
2023-01-13T00:45:36.426Z,94.68
2023-01-13T00:46:38.393Z,94.70
2023-01-13T00:47:40.110Z,94.70
2023-01-13T00:48:41.900Z,94.78
2023-01-13T00:49:43.594Z,94.73
2023-01-13T00:50:45.679Z,94.65
2023-01-13T00:51:47.376Z,94.39
2023-01-13T00:52:49.052Z,94.27
2023-01-13T00:53:51.419Z,94.31
2023-01-13T00:54:53.236Z,94.48
2023-01-13T00:56:21.846Z,94.58
2023-01-13T00:57:26.142Z,94.63
2023-01-13T00:58:28.112Z,94.72
2023-01-13T00:59:29.815Z,94.88
2023-01-13T01:00:34.852Z,94.94
2023-01-13T01:01:36.732Z,95.04
2023-01-13T01:02:38.555Z,95.10
2023-01-13T01:03:40.305Z,95.21
2023-01-13T01:04:42.076Z,95.12
2023-01-13T01:05:43.857Z,95.12
2023-01-13T01:06:45.558Z,95.08
2023-01-13T01:07:47.269Z,95.31
2023-01-13T01:08:49.005Z,95.40
2023-01-13T01:09:50.714Z,95.36
2023-01-13T01:11:01.253Z,95.41
2023-01-13T01:12:03.066Z,95.39
2023-01-13T01:13:04.774Z,95.39
2023-01-13T01:14:06.566Z,95.32
2023-01-13T01:15:10.211Z,95.36
2023-01-13T01:16:14.378Z,95.40
2023-01-13T01:17:16.124Z,95.40
2023-01-13T01:18:17.817Z,95.43
2023-01-13T01:19:19.547Z,95.37
2023-01-13T01:20:21.278Z,95.36
2023-01-13T01:21:23.927Z,95.35
2023-01-13T01:22:25.616Z,95.30
2023-01-13T01:23:30.972Z,95.32
2023-01-13T01:24:32.690Z,95.26
2023-01-13T01:25:34.431Z,95.24
2023-01-13T01:26:36.149Z,95.19
2023-01-13T01:27:38.039Z,95.16
2023-01-13T01:28:39.888Z,95.13
2023-01-13T01:29:41.578Z,95.19
2023-01-13T01:30:43.285Z,95.14
2023-01-13T01:31:45.133Z,95.10
2023-01-13T01:32:46.925Z,95.07
2023-01-13T01:33:49.295Z,95.09
2023-01-13T01:34:51.440Z,95.06
2023-01-13T01:35:56.507Z,95.03
2023-01-13T01:36:58.187Z,94.91
2023-01-13T01:37:59.966Z,94.86
2023-01-13T01:39:01.704Z,94.81
2023-01-13T01:40:03.583Z,94.85
2023-01-13T01:41:05.444Z,94.83
2023-01-13T01:42:25.655Z,94.96
2023-01-13T01:44:02.489Z,94.94
2023-01-13T01:45:21.144Z,94.90
2023-01-13T01:46:22.854Z,94.88
2023-01-13T01:47:24.571Z,94.92
2023-01-13T01:48:27.086Z,94.96
2023-01-13T01:49:32.997Z,94.96
2023-01-13T01:50:35.177Z,95.05
2023-01-13T01:51:44.631Z,95.11
2023-01-13T01:52:48.833Z,95.10
2023-01-13T01:53:50.581Z,95.08
2023-01-13T01:54:59.179Z,95.08
2023-01-13T01:56:00.979Z,94.99
2023-01-13T01:57:02.671Z,95.13
2023-01-13T01:58:29.393Z,95.10
2023-01-13T01:59:31.650Z,94.35
2023-01-13T02:00:33.487Z,94.10
2023-01-13T02:01:35.500Z,93.81
2023-01-13T02:02:37.356Z,93.52
2023-01-13T02:03:40.079Z,93.08
2023-01-13T02:04:50.857Z,92.70
2023-01-13T02:05:52.616Z,92.52
2023-01-13T02:06:54.328Z,92.54
2023-01-13T02:07:57.181Z,92.32
2023-01-13T02:08:59.559Z,91.68
2023-01-13T02:10:06.820Z,91.47
2023-01-13T02:11:28.496Z,91.24
2023-01-13T02:12:30.254Z,91.19
2023-01-13T02:13:31.997Z,91.14
2023-01-13T02:14:33.876Z,91.09
2023-01-13T02:15:44.819Z,91.10
2023-01-13T02:17:21.877Z,91.04
2023-01-13T02:18:34.848Z,91.12
2023-01-13T02:20:29.067Z,90.85
2023-01-13T02:21:42.586Z,90.88
2023-01-13T02:23:31.720Z,90.67
2023-01-13T02:24:59.611Z,90.66
2023-01-13T02:26:25.335Z,90.72
2023-01-13T02:27:47.881Z,91.02
2023-01-13T02:29:13.282Z,91.18
2023-01-13T02:30:45.414Z,91.58
2023-01-13T02:31:47.477Z,91.10
2023-01-13T02:33:15.340Z,91.06
2023-01-13T02:34:34.881Z,90.87
2023-01-13T02:35:51.614Z,90.25
2023-01-13T02:36:58.319Z,90.26
2023-01-13T02:38:00.056Z,90.20
2023-01-13T02:39:09.731Z,90.23
2023-01-13T02:40:26.110Z,90.14
2023-01-13T02:41:50.448Z,89.89
2023-01-13T02:43:43.461Z,90.49
2023-01-13T02:44:51.107Z,90.48
2023-01-13T02:45:56.137Z,90.28
2023-01-13T02:47:08.844Z,90.05
2023-01-13T02:48:10.567Z,89.93
2023-01-13T02:49:14.921Z,90.24
2023-01-13T02:50:18.428Z,90.58
2023-01-13T02:51:21.474Z,90.38
2023-01-13T02:52:45.970Z,90.15
2023-01-13T02:53:54.139Z,89.92
2023-01-13T02:54:57.693Z,90.01
2023-01-13T02:55:59.493Z,90.46
2023-01-13T02:57:01.249Z,90.62
2023-01-13T02:58:04.521Z,90.86
2023-01-13T02:59:06.237Z,91.03
2023-01-13T03:00:08.401Z,90.87
2023-01-13T03:01:10.223Z,90.64
2023-01-13T03:02:14.072Z,90.49
2023-01-13T03:03:15.797Z,90.39
2023-01-13T03:04:44.721Z,90.78
2023-01-13T03:05:47.143Z,91.62
2023-01-13T03:06:53.880Z,92.15
2023-01-13T03:08:20.314Z,92.70
2023-01-13T03:09:29.981Z,93.11
2023-01-13T03:10:56.347Z,93.16
2023-01-13T03:12:19.045Z,93.31
2023-01-13T03:13:51.324Z,93.40
2023-01-13T03:15:04.683Z,93.63
2023-01-13T03:16:10.629Z,93.75
2023-01-13T03:17:33.177Z,93.72
2023-01-13T03:18:45.739Z,93.60
2023-01-13T03:19:54.060Z,93.52
2023-01-13T03:21:06.103Z,93.55
2023-01-13T03:22:35.273Z,93.84
2023-01-13T03:23:48.439Z,93.97
2023-01-13T03:25:12.322Z,94.06
2023-01-13T03:26:42.482Z,94.08
2023-01-13T03:27:58.023Z,94.16
2023-01-13T03:29:19.126Z,94.27
2023-01-13T03:30:26.978Z,94.35
2023-01-13T03:31:31.240Z,94.49
2023-01-13T03:32:38.078Z,94.58
2023-01-13T03:33:46.062Z,94.56
2023-01-13T03:34:50.530Z,94.52
2023-01-13T03:35:53.561Z,94.54
2023-01-13T03:36:55.373Z,94.60
2023-01-13T03:38:00.609Z,94.70
2023-01-13T03:39:07.737Z,94.71
2023-01-13T03:40:15.690Z,94.71
2023-01-13T03:41:23.422Z,94.79
2023-01-13T03:42:25.420Z,94.82
2023-01-13T03:43:54.022Z,94.82
2023-01-13T03:44:59.533Z,94.83
2023-01-13T03:46:04.208Z,94.86
2023-01-13T03:47:23.622Z,94.84
2023-01-13T03:48:26.545Z,94.81
2023-01-13T03:49:36.178Z,94.75
2023-01-13T03:50:41.086Z,94.66
2023-01-13T03:51:43.599Z,94.61
2023-01-13T03:52:53.235Z,94.62
2023-01-13T03:54:00.034Z,94.62
2023-01-13T03:55:12.285Z,94.78
2023-01-13T03:56:19.979Z,94.88
2023-01-13T03:57:23.776Z,94.92
2023-01-13T03:58:30.590Z,94.91
2023-01-13T03:59:34.523Z,94.93
2023-01-13T04:00:42.704Z,94.99
2023-01-13T04:01:47.847Z,94.93
2023-01-13T04:03:02.784Z,94.92
2023-01-13T04:04:09.742Z,94.97
2023-01-13T04:05:11.460Z,95.00
2023-01-13T04:06:17.530Z,95.09
2023-01-13T04:07:33.174Z,95.13
2023-01-13T04:08:34.951Z,95.12
2023-01-13T04:09:46.639Z,95.14
2023-01-13T04:10:52.611Z,95.21
2023-01-13T04:11:57.578Z,95.30
2023-01-13T04:13:02.033Z,95.28
2023-01-13T04:14:03.695Z,95.29
2023-01-13T04:15:05.767Z,95.36
2023-01-13T04:16:07.902Z,95.35
2023-01-13T04:17:09.601Z,95.35
2023-01-13T04:18:21.714Z,95.36
2023-01-13T04:19:23.309Z,95.31
2023-01-13T04:20:24.930Z,95.27
2023-01-13T04:21:26.574Z,95.19
2023-01-13T04:22:28.197Z,95.19
2023-01-13T04:23:29.896Z,95.15
2023-01-13T04:24:31.501Z,95.17
2023-01-13T04:25:33.207Z,95.18
2023-01-13T04:26:34.855Z,95.20
2023-01-13T04:27:36.731Z,95.17
2023-01-13T04:28:40.819Z,95.14
2023-01-13T04:29:42.412Z,95.15
2023-01-13T04:30:44.218Z,95.15
2023-01-13T04:31:45.841Z,95.09
2023-01-13T04:32:47.434Z,95.09
2023-01-13T04:33:49.084Z,95.10
2023-01-13T04:34:50.694Z,95.15
2023-01-13T04:35:52.852Z,95.19
2023-01-13T04:36:54.469Z,95.23
2023-01-13T04:37:56.150Z,95.29
2023-01-13T04:38:57.769Z,95.30
2023-01-13T04:39:59.346Z,95.29
2023-01-13T04:41:01.018Z,95.38
2023-01-13T04:42:02.737Z,95.47
2023-01-13T04:43:04.425Z,95.45
2023-01-13T04:44:06.261Z,95.47
2023-01-13T04:45:09.335Z,95.46
2023-01-13T04:46:11.003Z,95.48
2023-01-13T04:47:12.606Z,95.57
2023-01-13T04:48:14.314Z,95.70
2023-01-13T04:49:15.919Z,95.76
2023-01-13T04:50:20.593Z,95.66
2023-01-13T04:51:22.179Z,95.61
2023-01-13T04:52:23.875Z,95.60
2023-01-13T04:53:25.509Z,95.56
2023-01-13T04:54:27.085Z,95.52
2023-01-13T04:55:28.730Z,95.48
2023-01-13T04:56:30.325Z,95.41
2023-01-13T04:57:33.434Z,95.46
2023-01-13T04:58:35.154Z,95.43
2023-01-13T04:59:36.751Z,95.41
2023-01-13T05:00:38.476Z,95.44
2023-01-13T05:01:40.357Z,95.48
2023-01-13T05:02:42.035Z,95.54
2023-01-13T05:03:43.706Z,95.50
2023-01-13T05:04:48.561Z,95.49
2023-01-13T05:05:53.335Z,95.45
2023-01-13T05:06:54.980Z,95.41
2023-01-13T05:07:57.185Z,95.43
2023-01-13T05:08:58.918Z,95.38
2023-01-13T05:10:00.520Z,95.36
2023-01-13T05:11:22.062Z,95.32
2023-01-13T05:12:42.200Z,95.32
2023-01-13T05:14:02.239Z,95.35
2023-01-13T05:15:22.669Z,95.36
2023-01-13T05:16:42.838Z,95.35
2023-01-13T05:17:44.646Z,95.39
2023-01-13T05:18:46.288Z,95.36
2023-01-13T05:19:47.969Z,95.35
2023-01-13T05:20:49.884Z,95.35
2023-01-13T05:22:09.995Z,95.32
2023-01-13T05:23:30.135Z,95.31
2023-01-13T05:24:50.133Z,95.37
2023-01-13T05:25:51.720Z,95.32
2023-01-13T05:26:53.306Z,95.32
2023-01-13T05:27:58.955Z,95.32
2023-01-13T05:29:00.551Z,95.28
2023-01-13T05:30:02.210Z,95.25
2023-01-13T05:31:03.880Z,95.26
2023-01-13T05:32:08.029Z,95.32
2023-01-13T05:33:10.669Z,95.32
2023-01-13T05:34:12.293Z,95.32
2023-01-13T05:35:16.037Z,95.34
2023-01-13T05:36:18.573Z,95.33
2023-01-13T05:37:20.183Z,95.32
2023-01-13T05:38:21.922Z,95.32
2023-01-13T05:39:23.496Z,95.40
2023-01-13T05:40:43.318Z,95.48
2023-01-13T05:42:03.351Z,95.53
2023-01-13T05:43:21.466Z,95.66
2023-01-13T05:44:23.296Z,95.43
2023-01-13T05:45:24.954Z,95.37
2023-01-13T05:46:26.609Z,95.49
2023-01-13T05:47:28.223Z,95.56
2023-01-13T05:48:33.733Z,95.63
2023-01-13T05:49:35.451Z,95.74
2023-01-13T05:50:37.040Z,95.87
2023-01-13T05:51:38.656Z,95.94
2023-01-13T05:52:40.291Z,95.95
2023-01-13T05:53:42.002Z,95.86
2023-01-13T05:54:43.635Z,95.90
2023-01-13T05:55:45.317Z,95.99
2023-01-13T05:56:46.913Z,95.95
2023-01-13T05:57:48.587Z,95.88
2023-01-13T05:58:50.194Z,95.95
2023-01-13T05:59:51.781Z,95.91
2023-01-13T06:00:53.794Z,95.79
2023-01-13T06:01:55.433Z,95.83
2023-01-13T06:02:57.145Z,95.78
2023-01-13T06:03:58.776Z,95.72
2023-01-13T06:05:00.487Z,95.61
2023-01-13T06:06:04.174Z,95.67
2023-01-13T06:07:06.146Z,95.71
2023-01-13T06:08:07.977Z,95.80
2023-01-13T06:09:09.586Z,95.79
2023-01-13T06:10:11.615Z,95.83
2023-01-13T06:11:13.272Z,95.82
2023-01-13T06:12:14.878Z,95.87
2023-01-13T06:13:16.537Z,95.78
2023-01-13T06:14:18.139Z,95.68
2023-01-13T06:15:19.778Z,95.64
2023-01-13T06:16:21.504Z,95.57
2023-01-13T06:17:23.141Z,95.54
2023-01-13T06:18:25.097Z,95.58
2023-01-13T06:19:26.743Z,95.58
2023-01-13T06:20:28.361Z,95.58
2023-01-13T06:21:31.919Z,95.47
2023-01-13T06:22:35.743Z,95.47
2023-01-13T06:23:38.735Z,95.43
2023-01-13T06:24:40.452Z,95.38
2023-01-13T06:26:04.514Z,95.21
2023-01-13T06:27:06.809Z,95.19
2023-01-13T06:28:08.448Z,95.28
2023-01-13T06:29:13.414Z,95.06
2023-01-13T06:30:15.099Z,94.94
2023-01-13T06:31:16.953Z,94.99
2023-01-13T06:32:32.646Z,94.94
2023-01-13T06:33:43.766Z,94.92
2023-01-13T06:34:47.787Z,95.02
2023-01-13T06:35:52.158Z,95.08
2023-01-13T06:36:53.880Z,95.10
2023-01-13T06:37:56.452Z,95.11
2023-01-13T06:38:58.989Z,95.20
2023-01-13T06:40:01.638Z,95.15
2023-01-13T06:41:04.171Z,95.14
2023-01-13T06:42:24.403Z,95.21
2023-01-13T06:43:25.996Z,95.13
2023-01-13T06:44:27.825Z,95.14
2023-01-13T06:45:29.412Z,95.10
2023-01-13T06:46:31.013Z,95.18
2023-01-13T06:47:32.646Z,95.10
2023-01-13T06:48:35.472Z,95.11
2023-01-13T06:49:37.298Z,95.24
2023-01-13T06:50:38.986Z,95.18
2023-01-13T06:51:40.597Z,94.98
2023-01-13T06:52:42.209Z,94.83
2023-01-13T06:53:43.883Z,94.71
2023-01-13T06:54:45.478Z,94.80
2023-01-13T06:55:47.072Z,94.83
2023-01-13T06:56:48.691Z,94.72
2023-01-13T06:57:54.591Z,94.66
2023-01-13T06:58:56.275Z,94.73
2023-01-13T06:59:57.862Z,94.79
2023-01-13T07:01:00.724Z,94.88
2023-01-13T07:02:02.873Z,94.93
2023-01-13T07:03:14.945Z,95.03
2023-01-13T07:04:16.692Z,95.08
2023-01-13T07:05:19.206Z,95.08
2023-01-13T07:06:20.800Z,95.12
2023-01-13T07:07:22.435Z,95.23
2023-01-13T07:08:24.070Z,95.10
2023-01-13T07:09:25.722Z,95.08
2023-01-13T07:10:27.305Z,95.05
2023-01-13T07:11:28.946Z,95.10
2023-01-13T07:12:30.530Z,95.11
2023-01-13T07:13:50.884Z,95.14
2023-01-13T07:15:10.623Z,95.13
2023-01-13T07:16:12.336Z,95.11
2023-01-13T07:17:13.944Z,95.08
2023-01-13T07:18:15.657Z,95.06
2023-01-13T07:19:23.248Z,95.07
2023-01-13T07:20:24.970Z,95.16
2023-01-13T07:21:26.621Z,95.32
2023-01-13T07:22:28.220Z,95.26
2023-01-13T07:23:34.476Z,95.39
2023-01-13T07:24:36.116Z,95.37
2023-01-13T07:25:37.716Z,95.45
2023-01-13T07:26:39.549Z,95.49
2023-01-13T07:27:41.203Z,95.47
2023-01-13T07:28:42.859Z,95.44
2023-01-13T07:29:44.467Z,95.51
2023-01-13T07:30:46.127Z,95.59
2023-01-13T07:31:49.999Z,95.58
2023-01-13T07:32:51.895Z,95.60
2023-01-13T07:33:53.525Z,95.59
2023-01-13T07:34:55.190Z,95.62
2023-01-13T07:35:57.908Z,95.55
2023-01-13T07:36:59.562Z,95.40
2023-01-13T07:38:01.159Z,95.33
2023-01-13T07:39:03.054Z,95.11
2023-01-13T07:40:05.154Z,95.01
2023-01-13T07:41:25.247Z,94.96
2023-01-13T07:42:45.702Z,94.83
2023-01-13T07:43:47.786Z,94.82
2023-01-13T07:44:49.865Z,94.92
2023-01-13T07:46:01.965Z,94.91
2023-01-13T07:47:03.729Z,94.94
2023-01-13T07:48:05.526Z,95.01
2023-01-13T07:49:07.324Z,94.80
2023-01-13T07:50:09.504Z,94.81
2023-01-13T07:51:11.695Z,94.79
2023-01-13T07:52:13.286Z,94.80
2023-01-13T07:53:14.943Z,94.77
2023-01-13T07:54:17.170Z,94.81
2023-01-13T07:55:18.916Z,94.77
2023-01-13T07:56:20.530Z,94.72
2023-01-13T07:57:22.172Z,94.73
2023-01-13T07:58:24.842Z,94.63
2023-01-13T07:59:26.473Z,94.74
2023-01-13T08:00:28.116Z,94.59
2023-01-13T08:01:31.878Z,94.68
2023-01-13T08:02:33.772Z,94.80
2023-01-13T08:03:35.391Z,94.70
2023-01-13T08:04:36.982Z,94.65
2023-01-13T08:05:38.591Z,94.51
2023-01-13T08:06:41.480Z,94.61
2023-01-13T08:07:43.128Z,94.69
2023-01-13T08:08:44.845Z,94.46
2023-01-13T08:09:46.500Z,94.45
2023-01-13T08:10:48.233Z,94.39
2023-01-13T08:12:09.811Z,94.32
2023-01-13T08:13:18.462Z,94.34
2023-01-13T08:14:20.195Z,94.42
2023-01-13T08:15:21.819Z,94.19
2023-01-13T08:16:23.995Z,94.24
2023-01-13T08:17:25.644Z,94.32
2023-01-13T08:18:27.265Z,94.28
2023-01-13T08:19:28.961Z,94.24
2023-01-13T08:20:30.656Z,94.25
2023-01-13T08:21:32.256Z,94.20
2023-01-13T08:22:33.925Z,94.19
2023-01-13T08:23:35.608Z,94.29
2023-01-13T08:24:37.265Z,94.30
2023-01-13T08:25:38.936Z,94.21
2023-01-13T08:26:40.556Z,94.16
2023-01-13T08:27:42.194Z,94.12
2023-01-13T08:28:44.150Z,93.94
2023-01-13T08:29:45.949Z,93.71
2023-01-13T08:30:47.720Z,93.89
2023-01-13T08:31:49.482Z,93.81
2023-01-13T08:32:51.190Z,93.83
2023-01-13T08:33:52.786Z,93.78
2023-01-13T08:34:54.411Z,93.87
2023-01-13T08:35:56.389Z,93.78
2023-01-13T08:36:58.294Z,93.84
2023-01-13T08:37:59.895Z,93.78
2023-01-13T08:39:01.701Z,93.79
2023-01-13T08:40:03.446Z,93.85
2023-01-13T08:41:38.005Z,93.93
2023-01-13T08:42:39.697Z,93.93
2023-01-13T08:43:41.368Z,93.66
2023-01-13T08:44:43.253Z,93.62
2023-01-13T08:45:45.099Z,93.60
2023-01-13T08:46:46.820Z,93.64
2023-01-13T08:47:48.467Z,93.76
2023-01-13T08:48:50.136Z,93.60
2023-01-13T08:49:51.740Z,93.58
2023-01-13T08:50:53.465Z,93.61
2023-01-13T08:51:55.139Z,93.67
2023-01-13T08:52:57.409Z,93.65
2023-01-13T08:53:59.026Z,93.58
2023-01-13T08:55:00.648Z,93.70
2023-01-13T08:56:02.311Z,93.80
2023-01-13T08:57:03.967Z,93.66
2023-01-13T08:58:15.368Z,93.56
2023-01-13T08:59:19.263Z,93.77
2023-01-13T09:00:21.016Z,93.81
2023-01-13T09:01:23.126Z,93.76
2023-01-13T09:02:25.571Z,93.77
2023-01-13T09:03:27.270Z,93.81
2023-01-13T09:04:29.151Z,93.58
2023-01-13T09:05:30.883Z,93.62
2023-01-13T09:06:32.658Z,93.58
2023-01-13T09:07:35.344Z,93.67
2023-01-13T09:08:36.934Z,93.56
2023-01-13T09:09:38.631Z,93.41
2023-01-13T09:10:40.629Z,93.29
2023-01-13T09:12:01.797Z,93.35
2023-01-13T09:13:12.135Z,93.60
2023-01-13T09:14:17.732Z,93.69
2023-01-13T09:15:19.476Z,93.65
2023-01-13T09:16:21.121Z,93.54
2023-01-13T09:17:23.274Z,93.62
2023-01-13T09:18:24.983Z,93.39
2023-01-13T09:19:27.260Z,93.16
2023-01-13T09:20:28.848Z,93.09
2023-01-13T09:21:30.461Z,92.82
2023-01-13T09:22:32.096Z,92.70
2023-01-13T09:23:33.734Z,92.82
2023-01-13T09:24:35.341Z,92.71
2023-01-13T09:25:37.097Z,92.55
2023-01-13T09:26:38.707Z,92.80
2023-01-13T09:27:40.435Z,93.08
2023-01-13T09:28:42.151Z,93.10
2023-01-13T09:29:43.839Z,92.99
2023-01-13T09:30:45.494Z,92.69
2023-01-13T09:31:47.130Z,92.24
2023-01-13T09:32:48.796Z,92.37
2023-01-13T09:34:10.352Z,92.51
2023-01-13T09:35:12.024Z,92.69
2023-01-13T09:36:13.656Z,92.56
2023-01-13T09:37:15.366Z,92.49
2023-01-13T09:38:17.066Z,92.26
2023-01-13T09:39:18.826Z,92.22
2023-01-13T09:40:22.649Z,92.16
2023-01-13T09:41:44.559Z,91.89
2023-01-13T09:43:04.493Z,92.13
2023-01-13T09:44:07.871Z,91.98
2023-01-13T09:45:14.302Z,92.26
2023-01-13T09:46:39.241Z,92.24
2023-01-13T09:47:52.435Z,92.06
2023-01-13T09:48:54.043Z,91.69
2023-01-13T09:50:10.168Z,91.82
2023-01-13T09:51:24.490Z,91.77
2023-01-13T09:52:27.153Z,91.86
2023-01-13T09:53:30.810Z,91.67
2023-01-13T09:54:45.235Z,91.72
2023-01-13T09:55:47.055Z,91.52
2023-01-13T09:56:48.918Z,91.58
2023-01-13T09:57:50.511Z,91.61
2023-01-13T09:58:52.394Z,91.46
2023-01-13T09:59:54.012Z,91.49
2023-01-13T10:00:55.662Z,91.04
2023-01-13T10:02:21.012Z,91.00
2023-01-13T10:03:26.935Z,91.39
2023-01-13T10:04:28.672Z,91.25
2023-01-13T10:06:07.391Z,91.39
2023-01-13T10:07:13.259Z,91.50
2023-01-13T10:08:42.463Z,91.52
2023-01-13T10:09:52.172Z,91.48
2023-01-13T10:11:34.320Z,91.07
2023-01-13T10:12:54.654Z,90.52
2023-01-13T10:13:58.630Z,90.69
2023-01-13T10:15:00.308Z,90.86
2023-01-13T10:16:27.302Z,90.85
2023-01-13T10:17:29.137Z,90.93
2023-01-13T10:18:52.289Z,90.61
2023-01-13T10:20:08.863Z,90.65
2023-01-13T10:22:03.422Z,90.57
2023-01-13T10:23:34.580Z,90.64
2023-01-13T10:24:48.263Z,90.79
2023-01-13T10:26:23.187Z,90.72
2023-01-13T10:27:39.889Z,90.66
2023-01-13T10:28:41.477Z,90.76
2023-01-13T10:29:43.173Z,90.93
2023-01-13T10:30:46.447Z,91.01
2023-01-13T10:31:48.066Z,91.19
2023-01-13T10:32:55.018Z,91.29
2023-01-13T10:34:01.482Z,91.21
2023-01-13T10:35:03.248Z,91.16
2023-01-13T10:36:14.758Z,91.09
2023-01-13T10:37:25.906Z,91.15
2023-01-13T10:38:30.255Z,91.22
2023-01-13T10:39:43.125Z,91.15
2023-01-13T10:40:52.159Z,91.24
2023-01-13T10:42:04.159Z,91.57
2023-01-13T10:43:06.801Z,91.91
2023-01-13T10:44:16.536Z,91.88
2023-01-13T10:45:25.098Z,92.20
2023-01-13T10:46:26.867Z,92.34
2023-01-13T10:47:33.272Z,92.22
2023-01-13T10:48:55.981Z,91.98
2023-01-13T10:50:13.538Z,92.16
2023-01-13T10:51:44.224Z,92.29
2023-01-13T10:53:16.402Z,92.10
2023-01-13T10:54:22.678Z,91.89
2023-01-13T10:55:30.664Z,91.95
2023-01-13T10:56:34.007Z,91.94
2023-01-13T10:57:38.297Z,92.08
2023-01-13T10:58:39.907Z,92.13
2023-01-13T10:59:41.799Z,92.47
2023-01-13T11:00:43.802Z,92.27
2023-01-13T11:02:24.373Z,92.14
2023-01-13T11:03:29.880Z,92.44
2023-01-13T11:04:34.034Z,92.61
2023-01-13T11:05:35.800Z,92.66
2023-01-13T11:06:37.711Z,92.75
2023-01-13T11:07:50.636Z,92.92
2023-01-13T11:08:55.203Z,92.97
2023-01-13T11:10:17.239Z,93.12
2023-01-13T11:11:40.048Z,92.93
2023-01-13T11:13:10.136Z,93.02
2023-01-13T11:14:39.474Z,92.73
2023-01-13T11:15:43.880Z,92.73
2023-01-13T11:16:52.947Z,92.83
2023-01-13T11:18:09.446Z,93.31
2023-01-13T11:19:14.176Z,93.28
2023-01-13T11:20:29.695Z,93.34
2023-01-13T11:21:35.976Z,93.39
2023-01-13T11:22:59.979Z,93.34
2023-01-13T11:24:06.840Z,93.36
2023-01-13T11:25:10.951Z,93.48
2023-01-13T11:26:19.396Z,93.61
2023-01-13T11:27:39.163Z,93.73
2023-01-13T11:29:05.569Z,93.59
2023-01-13T11:30:12.837Z,93.58
2023-01-13T11:31:33.565Z,93.70
2023-01-13T11:32:37.620Z,93.83
2023-01-13T11:34:01.957Z,93.89
2023-01-13T11:35:10.030Z,93.90
2023-01-13T11:36:20.522Z,94.02
2023-01-13T11:37:26.969Z,93.77
2023-01-13T11:38:40.906Z,93.62
2023-01-13T11:39:47.747Z,93.57
2023-01-13T11:40:49.476Z,93.60
2023-01-13T11:42:16.383Z,93.66
2023-01-13T11:43:24.013Z,93.73
2023-01-13T11:44:36.179Z,93.59
2023-01-13T11:45:51.094Z,93.91
2023-01-13T11:46:52.854Z,93.80
2023-01-13T11:47:57.665Z,93.78
2023-01-13T11:48:59.356Z,93.86
2023-01-13T11:50:01.203Z,93.73
2023-01-13T11:51:08.969Z,93.42
2023-01-13T11:52:21.707Z,93.54
2023-01-13T11:54:00.817Z,93.56
2023-01-13T11:55:19.213Z,93.59
2023-01-13T11:56:53.292Z,93.58
2023-01-13T11:58:05.298Z,93.48
2023-01-13T11:59:34.428Z,93.39
2023-01-13T12:01:10.263Z,93.55
2023-01-13T12:02:37.778Z,93.53
2023-01-13T12:03:39.456Z,93.40
2023-01-13T12:04:56.223Z,93.49
2023-01-13T12:06:20.899Z,93.43
2023-01-13T12:07:27.853Z,93.45
2023-01-13T12:08:41.147Z,93.41
2023-01-13T12:10:03.459Z,93.31
2023-01-13T12:11:17.927Z,93.28
2023-01-13T12:12:37.316Z,93.23
2023-01-13T12:13:44.884Z,93.31
2023-01-13T12:15:08.356Z,93.09
2023-01-13T12:16:16.147Z,93.11
2023-01-13T12:17:33.029Z,93.27
2023-01-13T12:18:49.350Z,93.17
2023-01-13T12:19:51.512Z,93.28
2023-01-13T12:21:17.559Z,93.41
2023-01-13T12:22:25.689Z,93.39
2023-01-13T12:23:40.444Z,93.39
2023-01-13T12:24:49.466Z,93.42
2023-01-13T12:25:53.880Z,93.67
2023-01-13T12:27:01.742Z,93.62
2023-01-13T12:28:25.048Z,93.40
2023-01-13T12:29:36.663Z,93.46
2023-01-13T12:30:59.879Z,93.38
2023-01-13T12:32:11.727Z,93.36
2023-01-13T12:33:31.683Z,93.41
2023-01-13T12:34:50.044Z,93.47
2023-01-13T12:35:58.982Z,93.40
2023-01-13T12:37:38.419Z,93.48
2023-01-13T12:39:06.693Z,93.48
2023-01-13T12:40:48.045Z,93.37
2023-01-13T12:42:32.547Z,93.44
2023-01-13T12:43:52.646Z,93.36
2023-01-13T12:45:10.375Z,93.11
2023-01-13T12:46:19.224Z,93.13
2023-01-13T12:47:34.652Z,93.16
2023-01-13T12:48:46.332Z,93.23
2023-01-13T12:49:48.010Z,92.99
2023-01-13T12:51:00.660Z,93.17
2023-01-13T12:52:13.925Z,93.17
2023-01-13T12:53:32.861Z,93.23
2023-01-13T12:54:37.169Z,93.29
2023-01-13T12:55:38.815Z,93.15
2023-01-13T12:56:44.843Z,93.06
2023-01-13T12:58:04.664Z,92.95
2023-01-13T12:59:32.860Z,92.85
2023-01-13T13:01:01.594Z,92.77
2023-01-13T13:02:12.493Z,92.82
2023-01-13T13:03:19.524Z,92.85
2023-01-13T13:04:41.344Z,92.81
2023-01-13T13:05:55.968Z,92.62
2023-01-13T13:07:07.672Z,92.62
2023-01-13T13:08:20.495Z,92.56
2023-01-13T13:09:27.421Z,92.37
2023-01-13T13:10:31.078Z,92.34
2023-01-13T13:11:54.037Z,92.23
2023-01-13T13:13:18.346Z,92.38
2023-01-13T13:14:38.211Z,92.36
2023-01-13T13:15:40.023Z,92.53
2023-01-13T13:16:52.336Z,92.58
2023-01-13T13:18:00.195Z,92.56
2023-01-13T13:19:22.645Z,92.36
2023-01-13T13:21:04.251Z,92.20
2023-01-13T13:22:12.071Z,92.23
2023-01-13T13:23:29.655Z,92.18
2023-01-13T13:24:31.278Z,92.19
2023-01-13T13:25:32.886Z,92.10
2023-01-13T13:26:38.792Z,92.07
2023-01-13T13:27:49.970Z,92.09
2023-01-13T13:29:25.296Z,92.21
2023-01-13T13:30:33.663Z,92.25
2023-01-13T13:31:44.629Z,92.00
2023-01-13T13:33:07.214Z,92.18
2023-01-13T13:34:12.932Z,92.27
2023-01-13T13:35:37.303Z,92.01
2023-01-13T13:36:41.589Z,91.96
2023-01-13T13:38:14.660Z,91.95
2023-01-13T13:39:42.168Z,91.95
2023-01-13T13:41:04.175Z,91.69
2023-01-13T13:42:51.557Z,91.60
2023-01-13T13:44:11.573Z,91.49
2023-01-13T13:45:42.308Z,91.52
2023-01-13T13:46:48.873Z,91.49
2023-01-13T13:47:51.582Z,91.63
2023-01-13T13:48:54.304Z,91.52
2023-01-13T13:49:56.788Z,91.52
2023-01-13T13:51:03.824Z,91.63
2023-01-13T13:52:51.675Z,91.54
2023-01-13T13:53:53.372Z,91.30
2023-01-13T13:54:59.653Z,91.27
2023-01-13T13:56:02.909Z,91.36
2023-01-13T13:57:04.519Z,91.39
2023-01-13T13:58:12.885Z,91.35
2023-01-13T13:59:19.084Z,91.28
2023-01-13T14:00:23.810Z,91.12
2023-01-13T14:01:28.739Z,91.11
2023-01-13T14:02:32.207Z,91.07
2023-01-13T14:03:39.885Z,91.20
2023-01-13T14:04:41.919Z,91.28
2023-01-13T14:05:54.568Z,91.30
2023-01-13T14:07:05.058Z,91.45
2023-01-13T14:08:09.352Z,91.23
2023-01-13T14:09:16.554Z,91.03
2023-01-13T14:10:24.926Z,90.94
2023-01-13T14:11:33.309Z,90.68
2023-01-13T14:12:37.661Z,90.72
2023-01-13T14:13:39.284Z,90.74
2023-01-13T14:14:44.361Z,90.76
2023-01-13T14:15:46.536Z,90.46
2023-01-13T14:16:48.165Z,90.31
2023-01-13T14:17:49.806Z,90.27
2023-01-13T14:18:51.437Z,90.24
2023-01-13T14:20:05.187Z,90.23
2023-01-13T14:21:19.326Z,90.35
2023-01-13T14:22:20.977Z,90.35
2023-01-13T14:23:26.496Z,90.35
2023-01-13T14:24:28.445Z,90.33
2023-01-13T14:25:40.154Z,90.29
2023-01-13T14:26:41.952Z,90.43
2023-01-13T14:27:43.797Z,90.45
2023-01-13T14:28:45.453Z,90.57
2023-01-13T14:29:47.100Z,90.81
2023-01-13T14:30:50.186Z,90.83